Time;durP1;ratioP1;P1;durP2;ratioP2;P2;SDS_P1;SDS_P2;PMS_P1;PMS_P2;Temp;Humidity;BMP_temperature;BMP_pressure;BME280_temperature;BME280_humidity;BME280_pressure;Samples;Min_cycle;Max_cycle;Signal;HPM_P1;HPM_P2
2024/04/04 00:02:20;;;;;;;12.90;6.95;;;12.10;80.20;;;;;;4986997;28;114312;-52
2024/04/04 00:04:45;;;;;;;11.55;7.10;;;12.10;79.90;;;;;;4986760;28;113758;-52
2024/04/04 00:07:11;;;;;;;13.68;7.55;;;11.90;80.30;;;;;;4988090;28;113178;-52
2024/04/04 00:09:37;;;;;;;14.75;8.98;;;11.90;80.30;;;;;;4987995;28;112955;-52
2024/04/04 00:12:03;;;;;;;15.82;8.70;;;11.90;80.30;;;;;;4987107;28;114344;-52
2024/04/04 00:14:29;;;;;;;14.35;8.65;;;11.90;80.40;;;;;;4986808;28;112909;-52
2024/04/04 00:16:54;;;;;;;17.73;8.60;;;11.90;80.40;;;;;;4987462;28;112847;-52
2024/04/04 00:19:20;;;;;;;13.10;8.77;;;11.80;80.70;;;;;;4987829;28;112704;-52
2024/04/04 00:21:46;;;;;;;14.70;9.13;;;11.90;80.70;;;;;;4986608;28;113205;-52
2024/04/04 00:24:11;;;;;;;18.08;11.50;;;11.80;80.70;;;;;;4986321;28;113771;-52
2024/04/04 00:26:37;;;;;;;18.77;11.48;;;11.80;80.80;;;;;;4986600;28;112824;-52
2024/04/04 00:29:03;;;;;;;13.30;10.57;;;11.80;80.80;;;;;;4987042;28;113186;-52
2024/04/04 00:31:29;;;;;;;13.90;11.98;;;11.80;80.80;;;;;;4985408;28;113403;-52
2024/04/04 00:33:56;;;;;;;16.73;12.27;;;11.90;80.70;;;;;;4968532;28;115468;-52
2024/04/04 00:36:22;;;;;;;13.90;12.00;;;11.90;80.80;;;;;;4969255;28;112468;-52
2024/04/04 00:38:48;;;;;;;16.45;11.57;;;11.80;80.70;;;;;;4970186;28;112882;-52
2024/04/04 00:41:13;;;;;;;18.13;13.20;;;11.90;80.70;;;;;;4972669;28;113222;-52
2024/04/04 00:43:39;;;;;;;15.93;14.15;;;11.80;81.10;;;;;;4979200;28;114159;-52
2024/04/04 00:46:06;;;;;;;18.25;13.60;;;11.80;81.50;;;;;;4978347;28;112470;-52
2024/04/04 00:48:32;;;;;;;18.92;15.18;;;11.60;81.80;;;;;;4987062;28;112805;-52
2024/04/04 00:50:58;;;;;;;20.80;14.05;;;11.60;82.10;;;;;;4985567;28;114251;-52
2024/04/04 00:53:26;;;;;;;20.60;15.30;;;11.60;82.10;;;;;;4971539;28;113316;-52
2024/04/04 00:55:54;;;;;;;16.88;14.02;;;11.60;82.00;;;;;;4986408;28;112580;-52
2024/04/04 00:58:20;;;;;;;16.65;14.25;;;11.60;82.20;;;;;;4986427;28;112845;-52
2024/04/04 01:00:46;;;;;;;18.73;15.57;;;11.60;82.30;;;;;;4985539;28;113261;-52
2024/04/04 01:03:12;;;;;;;19.48;15.30;;;11.50;82.50;;;;;;4984731;28;112602;-52
2024/04/04 01:05:37;;;;;;;18.55;16.55;;;11.60;82.70;;;;;;4986248;28;112937;-52
2024/04/04 01:08:05;;;;;;;18.33;16.08;;;11.60;82.60;;;;;;4986016;28;112661;-52
2024/04/04 01:10:31;;;;;;;23.88;17.92;;;11.50;82.70;;;;;;4971261;28;113322;-52
2024/04/04 01:12:56;;;;;;;17.73;15.80;;;11.40;83.10;;;;;;4985584;28;112567;-52
2024/04/04 01:15:22;;;;;;;18.08;16.23;;;11.40;82.90;;;;;;4985846;28;113007;-52
2024/04/04 01:17:48;;;;;;;19.13;16.35;;;11.40;83.00;;;;;;4985156;28;112693;-52
2024/04/04 01:20:14;;;;;;;19.30;16.10;;;11.30;83.50;;;;;;4985352;28;113241;-52
2024/04/04 01:22:39;;;;;;;20.65;16.98;;;11.30;83.60;;;;;;4985176;28;112838;-52
2024/04/04 01:25:06;;;;;;;24.75;17.25;;;11.30;83.50;;;;;;4986477;28;112762;-52
2024/04/04 01:27:33;;;;;;;20.60;15.93;;;11.30;83.70;;;;;;4986138;28;112979;-52
2024/04/04 01:29:59;;;;;;;18.15;15.68;;;11.30;83.70;;;;;;4984935;28;113739;-52
2024/04/04 01:32:24;;;;;;;17.95;16.05;;;11.30;83.60;;;;;;4984600;28;114065;-52
2024/04/04 01:34:50;;;;;;;22.20;16.55;;;11.30;83.40;;;;;;4985977;28;112636;-52
2024/04/04 01:37:16;;;;;;;19.95;16.67;;;11.20;83.80;;;;;;4986329;28;112866;-52
2024/04/04 01:39:41;;;;;;;18.85;16.10;;;11.20;84.20;;;;;;4984780;28;114627;-52
2024/04/04 01:42:07;;;;;;;20.73;16.67;;;11.20;84.20;;;;;;4984976;28;113800;-52
2024/04/04 01:44:33;;;;;;;18.45;16.42;;;11.20;84.20;;;;;;4969949;28;113215;-51
2024/04/04 01:46:58;;;;;;;21.17;16.88;;;11.20;83.80;;;;;;4986127;28;112795;-52
2024/04/04 01:49:24;;;;;;;19.48;16.63;;;11.20;83.90;;;;;;4989287;28;113181;-51
2024/04/04 01:51:50;;;;;;;20.10;17.85;;;11.10;83.90;;;;;;4989469;28;113656;-52
2024/04/04 01:54:15;;;;;;;18.05;16.25;;;11.10;84.00;;;;;;4985866;28;112619;-52
2024/04/04 01:56:42;;;;;;;20.00;16.83;;;11.00;84.10;;;;;;4985661;28;112614;-52
2024/04/04 01:59:09;;;;;;;19.75;16.83;;;11.00;84.00;;;;;;4984361;28;114650;-51
2024/04/04 02:01:35;;;;;;;19.40;16.35;;;11.00;84.10;;;;;;4984509;28;112950;-52
2024/04/04 02:04:01;;;;;;;18.45;16.58;;;11.00;84.30;;;;;;4985810;28;112664;-52
2024/04/04 02:06:26;;;;;;;18.27;16.38;;;10.90;84.20;;;;;;4985900;28;112785;-52
2024/04/04 02:08:52;;;;;;;21.52;17.40;;;11.10;84.30;;;;;;4984629;28;114105;-52
2024/04/04 02:11:18;;;;;;;20.95;16.75;;;11.00;84.50;;;;;;4984824;28;112713;-52
2024/04/04 02:13:44;;;;;;;17.90;15.93;;;11.00;84.40;;;;;;4987078;28;113209;-52
2024/04/04 02:16:09;;;;;;;18.75;16.67;;;11.00;84.50;;;;;;4989266;28;113051;-52
2024/04/04 02:18:35;;;;;;;20.05;16.60;;;11.00;84.30;;;;;;4987930;28;114385;-52
2024/04/04 02:21:02;;;;;;;20.52;17.42;;;10.90;84.30;;;;;;4987825;28;114164;-51
2024/04/04 02:23:28;;;;;;;20.77;18.08;;;10.90;84.60;;;;;;4988913;28;112687;-52
2024/04/04 02:25:56;;;;;;;21.55;16.25;;;10.90;84.60;;;;;;4989093;28;112972;-52
2024/04/04 02:28:22;;;;;;;18.20;16.33;;;10.90;84.50;;;;;;4987841;28;113323;-52
2024/04/04 02:30:47;;;;;;;21.40;17.23;;;10.90;84.40;;;;;;4986447;28;113999;-52
2024/04/04 02:33:13;;;;;;;19.20;15.90;;;10.90;84.30;;;;;;4988893;28;112539;-52
2024/04/04 02:35:39;;;;;;;19.42;17.48;;;10.90;84.20;;;;;;4988632;28;112682;-52
2024/04/04 02:38:06;;;;;;;18.58;16.08;;;10.90;84.20;;;;;;4988159;28;113545;-52
2024/04/04 02:40:33;;;;;;;19.17;16.33;;;10.80;84.10;;;;;;4987412;28;113861;-51
2024/04/04 02:43:00;;;;;;;20.15;16.05;;;10.80;84.10;;;;;;4986149;28;112905;-51
2024/04/04 02:45:26;;;;;;;20.27;16.35;;;10.80;84.30;;;;;;4976718;28;113058;-52
2024/04/04 02:47:51;;;;;;;19.25;15.30;;;10.70;84.50;;;;;;4988021;28;114586;-52
2024/04/04 02:50:18;;;;;;;27.25;16.85;;;10.70;84.40;;;;;;4987562;28;113753;-52
2024/04/04 02:52:43;;;;;;;20.67;16.08;;;10.60;84.30;;;;;;4988312;28;112807;-52
2024/04/04 02:55:09;;;;;;;19.65;16.17;;;10.70;84.40;;;;;;4988563;28;112903;-52
2024/04/04 02:57:38;;;;;;;17.67;15.40;;;10.70;84.30;;;;;;4987225;28;114359;-52
2024/04/04 03:00:08;;;;;;;21.35;16.05;;;10.60;84.50;;;;;;4987152;28;113923;-52
2024/04/04 03:02:34;;;;;;;17.42;13.85;;;10.70;84.30;;;;;;4988693;28;112456;-52
2024/04/04 03:05:00;;;;;;;20.13;14.73;;;10.70;84.00;;;;;;4988137;28;112677;-52
2024/04/04 03:07:27;;;;;;;21.48;14.93;;;10.80;83.50;;;;;;4987475;28;113337;-52
2024/04/04 03:09:53;;;;;;;16.90;14.48;;;10.80;83.40;;;;;;4986658;28;113909;-52
2024/04/04 03:12:18;;;;;;;16.90;14.77;;;10.70;83.30;;;;;;4988016;28;113075;-52
2024/04/04 03:14:44;;;;;;;17.83;15.30;;;10.60;83.50;;;;;;4988343;28;112698;-52
2024/04/04 03:17:10;;;;;;;19.67;15.48;;;10.60;83.90;;;;;;4986871;28;114456;-52
2024/04/04 03:19:35;;;;;;;19.50;15.15;;;10.60;84.00;;;;;;4987281;28;112963;-52
2024/04/04 03:22:01;;;;;;;16.42;14.77;;;10.60;84.10;;;;;;4988016;28;112597;-52
2024/04/04 03:24:27;;;;;;;15.93;14.30;;;10.50;84.00;;;;;;4987173;28;112647;-52
2024/04/04 03:26:52;;;;;;;20.77;15.43;;;10.50;84.00;;;;;;4987078;28;114590;-51
2024/04/04 03:29:18;;;;;;;18.23;14.77;;;10.50;84.00;;;;;;4986804;28;112795;-51
2024/04/04 03:31:44;;;;;;;20.00;14.88;;;10.40;83.90;;;;;;4987798;28;112485;-52
2024/04/04 03:34:09;;;;;;;18.48;14.77;;;10.50;84.00;;;;;;4987595;28;112825;-52
2024/04/04 03:36:35;;;;;;;16.00;14.40;;;10.50;84.30;;;;;;4986982;28;113205;-51
2024/04/04 03:39:01;;;;;;;17.88;15.10;;;10.50;84.10;;;;;;4986615;28;112920;-52
2024/04/04 03:41:27;;;;;;;19.73;14.88;;;10.40;84.10;;;;;;4987613;28;112696;-52
2024/04/04 03:43:53;;;;;;;16.58;14.15;;;10.40;84.10;;;;;;4977343;28;114805;-52
2024/04/04 03:46:18;;;;;;;15.85;14.20;;;10.50;83.80;;;;;;4982394;28;113729;-51
2024/04/04 03:48:45;;;;;;;19.20;14.45;;;10.40;83.90;;;;;;4987052;28;112730;-52
2024/04/04 03:51:11;;;;;;;16.75;14.35;;;10.40;84.00;;;;;;4987625;28;113188;-52
2024/04/04 03:53:36;;;;;;;17.10;15.07;;;10.30;84.40;;;;;;4985831;28;112862;-52
2024/04/04 03:56:02;;;;;;;22.02;15.02;;;10.30;84.10;;;;;;4986264;28;114410;-51
2024/04/04 03:58:28;;;;;;;21.75;14.15;;;10.20;84.40;;;;;;4986184;28;112736;-51
2024/04/04 04:00:54;;;;;;;18.67;14.13;;;10.30;84.40;;;;;;4987432;28;112922;-52
2024/04/04 04:03:19;;;;;;;18.00;14.40;;;10.20;84.30;;;;;;4987453;28;112685;-52
2024/04/04 04:05:46;;;;;;;18.88;15.27;;;10.30;84.30;;;;;;4986560;28;113239;-52
2024/04/04 04:08:14;;;;;;;17.70;15.45;;;10.20;84.20;;;;;;4986150;28;112627;-52
2024/04/04 04:10:39;;;;;;;19.75;15.13;;;10.20;84.30;;;;;;4987436;28;112639;-52
2024/04/04 04:13:05;;;;;;;16.35;14.57;;;10.20;84.30;;;;;;4987439;28;112706;-51
2024/04/04 04:15:31;;;;;;;18.30;14.75;;;10.10;84.30;;;;;;4986380;28;113234;-51
2024/04/04 04:17:56;;;;;;;18.98;14.35;;;10.20;84.40;;;;;;4986271;28;112702;-52
2024/04/04 04:23:06;;;;;;;25.42;18.23;;;10.20;84.30;;;;;;4987083;28;112823;-51
2024/04/04 04:25:32;;;;;;;20.60;15.07;;;10.10;84.30;;;;;;4985920;28;113198;-52
2024/04/04 04:27:58;;;;;;;22.25;15.57;;;10.10;84.00;;;;;;4986083;28;113422;-52
2024/04/04 04:30:23;;;;;;;16.67;14.95;;;9.90;84.30;;;;;;4986788;28;112986;-52
2024/04/04 04:32:49;;;;;;;20.00;15.40;;;9.90;84.20;;;;;;4987067;28;112897;-51
2024/04/04 04:35:15;;;;;;;22.35;14.60;;;9.90;84.20;;;;;;4985673;28;114464;-51
2024/04/04 04:37:41;;;;;;;18.65;15.45;;;9.90;84.30;;;;;;4985427;28;113865;-51
2024/04/04 04:40:07;;;;;;;17.92;14.52;;;9.90;84.30;;;;;;4987015;28;112890;-52
2024/04/04 04:42:33;;;;;;;19.80;15.02;;;9.80;83.40;;;;;;4986637;28;112775;-52
2024/04/04 04:44:58;;;;;;;16.88;14.13;;;9.80;83.90;;;;;;4971142;28;113696;-51
2024/04/04 04:47:24;;;;;;;19.25;14.70;;;9.80;84.00;;;;;;4985714;28;113819;-51
2024/04/04 04:49:53;;;;;;;19.25;14.93;;;9.80;84.30;;;;;;4986229;28;112637;-51
2024/04/04 04:52:18;;;;;;;22.20;15.82;;;9.80;84.30;;;;;;4986665;28;112844;-51
2024/04/04 04:54:44;;;;;;;19.30;16.23;;;9.80;84.50;;;;;;4985545;28;113364;-52
2024/04/04 04:57:10;;;;;;;21.55;15.82;;;9.80;85.00;;;;;;4985439;28;113720;-51
2024/04/04 04:59:36;;;;;;;17.92;14.98;;;9.80;84.90;;;;;;4986522;28;112594;-52
2024/04/04 05:02:02;;;;;;;23.60;15.07;;;10.00;84.60;;;;;;4984898;28;112906;-52
2024/04/04 05:04:28;;;;;;;17.08;14.50;;;10.10;84.30;;;;;;4985332;28;113156;-51
2024/04/04 05:06:54;;;;;;;18.40;14.30;;;10.10;84.50;;;;;;4985183;28;112636;-52
2024/04/04 05:09:20;;;;;;;17.23;13.85;;;10.10;84.40;;;;;;4986021;28;112689;-51
2024/04/04 05:11:46;;;;;;;19.58;13.90;;;10.20;84.00;;;;;;4985852;28;112722;-52
2024/04/04 05:14:14;;;;;;;17.77;13.60;;;10.10;84.00;;;;;;4985393;28;113540;-52
2024/04/04 05:16:41;;;;;;;21.45;13.98;;;10.30;83.70;;;;;;4985062;28;114077;-52
2024/04/04 05:19:10;;;;;;;18.90;13.38;;;10.30;83.70;;;;;;4985798;28;112781;-52
2024/04/04 05:21:36;;;;;;;18.30;13.65;;;10.40;83.50;;;;;;4986291;28;112700;-52
2024/04/04 05:24:02;;;;;;;18.38;13.35;;;10.30;83.60;;;;;;4984824;28;114554;-51
2024/04/04 05:26:27;;;;;;;21.08;13.40;;;10.30;83.90;;;;;;4985248;28;112845;-52
2024/04/04 05:28:55;;;;;;;20.90;12.90;;;10.30;83.90;;;;;;4985976;28;112847;-52
2024/04/04 05:31:22;;;;;;;21.33;14.20;;;10.30;83.90;;;;;;4986166;28;112645;-52
2024/04/04 05:33:47;;;;;;;18.98;13.27;;;10.30;83.70;;;;;;4984675;28;115295;-51
2024/04/04 05:36:13;;;;;;;17.10;12.82;;;10.30;83.80;;;;;;4984838;28;112701;-51
2024/04/04 05:38:39;;;;;;;20.30;12.50;;;10.30;83.80;;;;;;4985891;28;112887;-52
2024/04/04 05:41:05;;;;;;;20.48;12.25;;;10.30;83.70;;;;;;4985562;28;112686;-51
2024/04/04 05:43:31;;;;;;;19.08;12.63;;;10.50;83.50;;;;;;4978323;28;113182;-51
2024/04/04 05:45:57;;;;;;;21.02;12.25;;;10.50;83.40;;;;;;4977732;28;114907;-51
2024/04/04 05:48:22;;;;;;;16.98;12.25;;;10.60;83.20;;;;;;4987356;28;112694;-52
2024/04/04 05:50:48;;;;;;;14.05;12.60;;;10.70;83.10;;;;;;4989561;28;112976;-52
2024/04/04 05:53:14;;;;;;;17.30;12.38;;;10.70;83.30;;;;;;4988359;28;113333;-51
2024/04/04 05:55:42;;;;;;;20.45;10.88;;;10.80;83.30;;;;;;4988512;28;112875;-52
2024/04/04 05:58:08;;;;;;;22.25;11.63;;;10.80;82.70;;;;;;4989034;28;112982;-52
2024/04/04 06:00:33;;;;;;;21.80;12.35;;;10.90;82.90;;;;;;4989073;28;112882;-52
2024/04/04 06:02:59;;;;;;;19.55;12.05;;;10.90;82.80;;;;;;4987939;28;114811;-51
2024/04/04 06:05:25;;;;;;;19.05;11.50;;;11.10;82.80;;;;;;4987882;28;114027;-51
2024/04/04 06:07:51;;;;;;;16.20;11.48;;;11.10;82.70;;;;;;4989096;28;113067;-52
2024/04/04 06:10:16;;;;;;;20.65;11.93;;;11.40;82.40;;;;;;4988995;28;112924;-52
2024/04/04 06:12:42;;;;;;;18.35;11.93;;;11.50;82.30;;;;;;4986560;28;116094;-52
2024/04/04 06:15:08;;;;;;;20.13;12.82;;;11.60;82.30;;;;;;4987909;28;112819;-51
2024/04/04 06:17:33;;;;;;;20.23;13.52;;;11.70;82.40;;;;;;4988877;28;112609;-51
2024/04/04 06:19:59;;;;;;;20.70;13.68;;;11.80;82.70;;;;;;4988791;28;113160;-51
2024/04/04 06:22:25;;;;;;;21.40;13.02;;;11.90;82.60;;;;;;4987751;28;113165;-52
2024/04/04 06:24:50;;;;;;;16.17;12.52;;;11.90;82.50;;;;;;4987509;28;112701;-52
2024/04/04 06:27:16;;;;;;;22.45;13.30;;;12.10;82.60;;;;;;4988452;28;112820;-51
2024/04/04 06:29:42;;;;;;;17.63;12.02;;;12.20;82.20;;;;;;4988932;28;113234;-51
2024/04/04 06:32:07;;;;;;;19.35;12.23;;;12.40;82.00;;;;;;4987504;28;114603;-52
2024/04/04 06:34:36;;;;;;;17.23;11.57;;;12.60;81.80;;;;;;4987817;28;113167;-52
2024/04/04 06:37:02;;;;;;;15.65;11.10;;;12.70;81.60;;;;;;4988338;28;112602;-52
2024/04/04 06:39:28;;;;;;;18.23;12.23;;;12.90;81.50;;;;;;4981183;28;112777;-52
2024/04/04 06:41:53;;;;;;;17.88;12.07;;;13.00;81.40;;;;;;4967909;28;113101;-51
2024/04/04 06:44:19;;;;;;;20.35;11.80;;;13.10;81.10;;;;;;4966963;28;112661;-51
2024/04/04 06:46:45;;;;;;;14.30;10.27;;;13.20;80.80;;;;;;4987493;28;112556;-52
2024/04/04 06:49:11;;;;;;;17.27;9.90;;;13.30;80.60;;;;;;4975382;28;113050;-52
2024/04/04 06:51:37;;;;;;;16.15;10.20;;;13.50;80.50;;;;;;4973524;28;114484;-52
2024/04/04 06:54:03;;;;;;;13.93;9.35;;;13.50;79.80;;;;;;4968290;28;113070;-53
2024/04/04 06:56:29;;;;;;;12.60;8.73;;;13.70;79.40;;;;;;4973151;28;113207;-52
2024/04/04 06:58:54;;;;;;;15.70;9.00;;;13.80;78.90;;;;;;4981410;28;112747;-52
2024/04/04 07:01:20;;;;;;;15.02;9.40;;;13.90;78.40;;;;;;4973784;28;115374;-52
2024/04/04 07:03:46;;;;;;;13.15;9.85;;;14.00;78.10;;;;;;4985435;28;112606;-52
2024/04/04 07:06:12;;;;;;;12.43;8.60;;;14.20;77.30;;;;;;4979227;28;112625;-52
2024/04/04 07:08:38;;;;;;;12.05;7.80;;;14.30;76.70;;;;;;4982828;28;112965;-52
2024/04/04 07:11:05;;;;;;;13.73;8.05;;;14.40;76.60;;;;;;4967326;28;114382;-52
2024/04/04 07:13:36;;;;;;;10.30;7.43;;;14.50;76.20;;;;;;4979932;28;113900;-53
2024/04/04 07:16:12;;;;;;;10.07;6.97;;;14.50;75.90;;;;;;4974495;28;113189;-52
2024/04/04 07:18:38;;;;;;;10.77;7.10;;;14.80;75.60;;;;;;4973854;28;112599;-52
2024/04/04 07:21:06;;;;;;;9.38;7.28;;;14.90;75.00;;;;;;4969940;28;113584;-52
2024/04/04 07:23:32;;;;;;;11.85;7.43;;;15.00;75.10;;;;;;4968637;28;113812;-53
2024/04/04 07:25:58;;;;;;;12.43;7.28;;;15.10;74.50;;;;;;4971357;28;112693;-52
2024/04/04 07:28:24;;;;;;;13.63;7.30;;;15.20;73.90;;;;;;4968941;28;114171;-53
2024/04/04 07:30:51;;;;;;;11.75;6.00;;;15.30;73.50;;;;;;4970595;28;114416;-54
2024/04/04 07:33:16;;;;;;;8.75;5.18;;;15.40;72.90;;;;;;4971227;28;112637;-53
2024/04/04 07:35:43;;;;;;;11.02;5.85;;;15.50;72.30;;;;;;4972955;28;112529;-52
2024/04/04 07:38:10;;;;;;;10.98;5.63;;;15.60;71.20;;;;;;4968587;28;112770;-53
2024/04/04 07:40:36;;;;;;;12.13;5.47;;;15.70;71.00;;;;;;4972494;28;113098;-52
2024/04/04 07:43:03;;;;;;;13.50;5.97;;;15.90;71.30;;;;;;4967586;28;114031;-52
2024/04/04 07:45:30;;;;;;;13.85;6.32;;;16.00;70.60;;;;;;4976335;28;112670;-52
2024/04/04 07:47:56;;;;;;;12.30;5.50;;;16.10;69.60;;;;;;4987009;28;112786;-52
2024/04/04 07:50:23;;;;;;;10.68;5.32;;;16.30;69.50;;;;;;4973923;28;113692;-52
2024/04/04 07:52:49;;;;;;;14.27;4.53;;;16.20;68.70;;;;;;4986831;28;112806;-53
2024/04/04 07:55:15;;;;;;;8.32;4.63;;;16.40;68.80;;;;;;4973229;28;113294;-52
2024/04/04 07:57:42;;;;;;;8.70;4.47;;;16.30;68.70;;;;;;4986341;28;112746;-53
2024/04/04 08:00:08;;;;;;;7.97;3.97;;;16.60;67.60;;;;;;4983527;28;114129;-52
2024/04/04 08:02:35;;;;;;;11.60;4.90;;;16.70;67.20;;;;;;4984994;28;113391;-53
2024/04/04 08:05:02;;;;;;;9.25;4.22;;;16.70;66.60;;;;;;4984150;28;113149;-53
2024/04/04 08:07:35;;;;;;;9.63;4.25;;;16.80;66.40;;;;;;4986076;28;112791;-52
2024/04/04 08:10:10;;;;;;;8.52;4.13;;;16.70;65.30;;;;;;4984274;28;113643;-52
2024/04/04 08:12:36;;;;;;;8.43;4.10;;;16.60;65.60;;;;;;4966511;28;112605;-53
2024/04/04 08:15:10;;;;;;;13.70;4.55;;;17.00;65.00;;;;;;4978253;28;112778;-52
2024/04/04 08:17:37;;;;;;;7.28;3.50;;;17.00;64.50;;;;;;4980364;28;112850;-53
2024/04/04 08:20:03;;;;;;;7.95;3.97;;;17.20;64.20;;;;;;4976979;28;114445;-52
2024/04/04 08:22:29;;;;;;;7.78;3.67;;;17.30;63.90;;;;;;4979761;28;112660;-53
2024/04/04 08:24:55;;;;;;;7.32;4.07;;;17.60;63.30;;;;;;4975701;28;113031;-53
2024/04/04 08:27:20;;;;;;;7.25;4.25;;;17.90;62.20;;;;;;4977397;28;112636;-53
2024/04/04 08:29:47;;;;;;;8.32;3.63;;;17.90;62.10;;;;;;4973541;28;113292;-52
2024/04/04 08:32:13;;;;;;;10.38;3.83;;;18.00;61.70;;;;;;4976156;28;112978;-53
2024/04/04 08:34:39;;;;;;;8.00;3.78;;;17.90;61.10;;;;;;4973105;28;112568;-52
2024/04/04 08:37:05;;;;;;;8.52;4.00;;;17.80;60.50;;;;;;4979511;28;113803;-52
2024/04/04 08:39:31;;;;;;;11.13;4.20;;;17.50;60.30;;;;;;4965207;28;114584;-52
2024/04/04 08:41:56;;;;;;;10.13;4.25;;;17.90;60.30;;;;;;4969318;28;113900;-52
2024/04/04 08:44:23;;;;;;;7.65;3.88;;;18.10;58.80;;;;;;4969509;28;112938;-52
2024/04/04 08:46:49;;;;;;;8.57;3.80;;;18.00;60.00;;;;;;4976055;28;113213;-52
2024/04/04 08:49:20;;;;;;;8.02;3.88;;;18.50;60.20;;;;;;4987114;28;113548;-53
2024/04/04 08:51:48;;;;;;;8.52;4.05;;;18.80;58.20;;;;;;4967828;28;112809;-52
2024/04/04 08:54:13;;;;;;;8.38;4.03;;;19.00;57.90;;;;;;4968322;28;112743;-50
2024/04/04 08:56:41;;;;;;;6.32;3.60;;;19.10;58.20;;;;;;4965897;28;112887;-52
2024/04/04 08:59:07;;;;;;;8.20;4.10;;;19.20;58.10;;;;;;4978985;28;115092;-51
2024/04/04 09:01:33;;;;;;;7.07;3.40;;;19.10;56.60;;;;;;4969794;28;113477;-52
2024/04/04 09:03:58;;;;;;;7.70;3.55;;;19.30;57.60;;;;;;4975187;28;112890;-52
2024/04/04 09:06:25;;;;;;;9.05;3.63;;;19.60;56.10;;;;;;4968135;28;113785;-51
2024/04/04 09:08:54;;;;;;;6.20;3.25;;;19.40;57.30;;;;;;4977963;28;113499;-51
2024/04/04 09:11:29;;;;;;;8.23;3.85;;;19.70;56.50;;;;;;4974647;28;113720;-52
2024/04/04 09:14:09;;;;;;;8.05;3.38;;;19.90;54.90;;;;;;4975387;28;112942;-51
2024/04/04 09:16:38;;;;;;;5.80;3.10;;;19.40;55.50;;;;;;4973198;28;112675;-52
2024/04/04 09:19:10;;;;;;;8.93;3.30;;;19.90;55.50;;;;;;4973852;28;113322;-52
2024/04/04 09:21:36;;;;;;;;;;;20.10;54.20;;;;;;4972002;28;114256;-52
2024/04/04 09:24:04;;;;;;;5.50;2.83;;;20.20;54.00;;;;;;4976107;28;112738;-52
2024/04/04 09:26:31;;;;;;;9.10;4.28;;;20.20;53.40;;;;;;4978911;28;112754;-51
2024/04/04 09:28:58;;;;;;;8.85;4.30;;;19.80;54.50;;;;;;4976238;28;113217;-51
2024/04/04 09:31:29;;;;;;;7.18;3.88;;;19.50;53.40;;;;;;4969716;28;112885;-51
2024/04/04 09:33:56;;;;;;;6.50;3.70;;;19.60;53.60;;;;;;4980252;28;112638;-51
2024/04/04 09:36:25;;;;;;;5.63;4.15;;;20.10;53.80;;;;;;4979620;28;113416;-50
2024/04/04 09:38:54;;;;;;;8.70;3.85;;;19.80;53.00;;;;;;4980455;28;113853;-51
2024/04/04 09:41:21;;;;;;;7.22;4.18;;;19.90;54.30;;;;;;4969405;28;112726;-50
2024/04/04 09:43:48;;;;;;;9.63;4.45;;;20.60;52.70;;;;;;4973445;28;112902;-51
2024/04/04 09:46:16;;;;;;;8.20;3.45;;;20.60;51.50;;;;;;4970565;28;113437;-51
2024/04/04 09:48:45;;;;;;;7.72;3.83;;;20.60;51.80;;;;;;4973603;28;114583;-51
2024/04/04 09:51:12;;;;;;;9.23;4.10;;;20.40;52.10;;;;;;4973456;28;112775;-51
2024/04/04 09:53:38;;;;;;;7.63;3.83;;;19.90;52.00;;;;;;4973245;28;113274;-51
2024/04/04 09:56:05;;;;;;;7.13;3.70;;;19.90;52.10;;;;;;4974221;28;112751;-51
2024/04/04 09:58:34;;;;;;;9.00;4.18;;;20.60;52.50;;;;;;4973227;28;113362;-52
2024/04/04 10:01:24;;;;;;;6.40;3.63;;;20.90;50.60;;;;;;4974217;28;112737;-51
2024/04/04 10:03:53;;;;;;;8.38;4.85;;;20.90;52.20;;;;;;4984263;28;112666;-51
2024/04/04 10:06:25;;;;;;;5.53;3.80;;;21.90;50.30;;;;;;4985049;28;112825;-51
2024/04/04 10:08:50;;;;;;;;;;;22.20;48.80;;;;;;4979049;28;113369;-51
2024/04/04 10:11:29;;;;;;;7.30;3.55;;;22.00;49.20;;;;;;4976963;28;112649;-50
2024/04/04 10:14:02;;;;;;;10.63;4.45;;;21.70;50.00;;;;;;4983750;28;113561;-51
2024/04/04 10:16:35;;;;;;;5.63;3.88;;;21.10;50.70;;;;;;4985316;28;112855;-51
2024/04/04 10:19:21;;;;;;;7.28;3.60;;;20.70;51.10;;;;;;4982837;28;114412;-51
2024/04/04 10:21:47;;;;;;;9.90;3.40;;;20.80;50.60;;;;;;4984172;28;112883;-51
2024/04/04 10:24:42;;;;;;;5.13;3.85;;;20.90;52.40;;;;;;4983838;28;112758;-51
2024/04/04 10:27:12;;;;;;;6.07;3.72;;;20.50;51.80;;;;;;4942879;28;112992;-51
2024/04/04 10:29:38;;;;;;;8.20;3.58;;;22.40;47.80;;;;;;4942316;28;113445;-51
2024/04/04 10:32:08;;;;;;;9.25;4.30;;;21.20;49.20;;;;;;4941979;28;114339;-51
2024/04/04 10:34:34;;;;;;;8.60;3.58;;;20.70;50.40;;;;;;4944738;28;113206;-51
2024/04/04 10:37:00;;;;;;;6.32;3.65;;;20.40;52.10;;;;;;4946848;28;113325;-52
2024/04/04 10:39:26;;;;;;;8.15;3.80;;;20.40;52.40;;;;;;4945231;28;115482;-52
2024/04/04 10:41:57;;;;;;;7.32;4.32;;;20.00;51.80;;;;;;4945672;28;114050;-52
2024/04/04 10:44:23;;;;;;;8.23;3.75;;;20.10;51.40;;;;;;4945843;28;112740;-53
2024/04/04 10:46:49;;;;;;;6.82;3.80;;;22.40;46.90;;;;;;4946556;28;113042;-52
2024/04/04 10:49:17;;;;;;;8.45;4.75;;;22.50;47.20;;;;;;4945739;28;114487;-52
2024/04/04 10:51:51;;;;;;;7.20;3.67;;;22.30;47.70;;;;;;4945489;28;113107;-53
2024/04/04 10:54:18;;;;;;;6.97;3.63;;;21.70;49.60;;;;;;4945577;28;114759;-53
2024/04/04 10:56:50;;;;;;;8.45;3.80;;;21.40;49.30;;;;;;4945989;28;112795;-53
2024/04/04 10:59:19;;;;;;;6.60;3.63;;;20.90;50.00;;;;;;4936353;28;113624;-53
2024/04/04 11:01:46;;;;;;;9.93;4.10;;;21.00;49.20;;;;;;4945285;28;113337;-53
2024/04/04 11:04:12;;;;;;;8.38;3.28;;;23.00;45.70;;;;;;4969804;28;113177;-53
2024/04/04 11:06:42;;;;;;;8.45;3.58;;;23.50;45.20;;;;;;4986222;28;113082;-54
2024/04/04 11:09:11;;;;;;;7.47;3.15;;;30.10;34.80;;;;;;4971855;28;114504;-54
2024/04/04 11:11:40;;;;;;;4.13;3.65;;;32.50;32.10;;;;;;4983799;28;113746;-55
2024/04/04 11:14:06;;;;;;;7.90;4.15;;;34.30;28.90;;;;;;4984486;28;113841;-56
2024/04/04 11:16:32;;;;;;;7.75;3.97;;;34.10;28.60;;;;;;4974587;28;112903;-53
2024/04/04 11:18:59;;;;;;;5.82;3.80;;;33.70;29.10;;;;;;4982349;28;113742;-53
2024/04/04 11:21:24;;;;;;;5.38;3.28;;;32.80;30.00;;;;;;4985075;28;112638;-54
2024/04/04 11:23:50;;;;;;;6.30;3.10;;;35.20;28.30;;;;;;4985355;28;113017;-54
2024/04/04 11:26:18;;;;;;;4.53;2.90;;;30.90;31.30;;;;;;4980082;28;113093;-53
2024/04/04 11:28:43;;;;;;;3.90;3.25;;;27.10;35.90;;;;;;4980266;28;113212;-53
2024/04/04 11:31:09;;;;;;;4.70;3.22;;;24.50;40.60;;;;;;4973225;28;113373;-52
2024/04/04 11:33:35;;;;;;;4.95;3.42;;;23.40;43.20;;;;;;4975194;28;112854;-52
2024/04/04 11:36:01;;;;;;;5.25;3.67;;;22.70;43.80;;;;;;4984636;28;112754;-55
2024/04/04 11:38:26;;;;;;;6.00;3.95;;;22.50;44.60;;;;;;4976789;28;113253;-54
2024/04/04 11:40:52;;;;;;;4.78;3.90;;;21.90;46.40;;;;;;4969391;28;112698;-54
2024/04/04 11:43:18;;;;;;;5.65;4.07;;;21.30;47.40;;;;;;4981445;28;112701;-54
2024/04/04 11:45:44;;;;;;;5.80;4.00;;;21.80;47.80;;;;;;4983077;28;112664;-54
2024/04/04 11:48:10;;;;;;;10.32;4.20;;;21.40;46.50;;;;;;4972804;28;114506;-54
2024/04/04 11:50:37;;;;;;;5.45;3.67;;;21.20;47.20;;;;;;4986956;28;114792;-55
2024/04/04 11:53:03;;;;;;;7.43;3.97;;;21.40;46.80;;;;;;4987903;28;114379;-54
2024/04/04 11:55:30;;;;;;;5.15;2.97;;;21.70;46.70;;;;;;4988066;28;112691;-55
2024/04/04 11:57:55;;;;;;;7.13;3.70;;;23.70;45.30;;;;;;4987078;28;113707;-54
2024/04/04 12:00:23;;;;;;;6.00;3.50;;;23.60;43.60;;;;;;4981690;28;112923;-54
2024/04/04 12:02:50;;;;;;;8.65;3.70;;;22.80;44.20;;;;;;4979132;28;113921;-54
2024/04/04 12:05:16;;;;;;;5.22;3.00;;;22.90;44.30;;;;;;4978693;28;112759;-54
2024/04/04 12:07:43;;;;;;;6.75;3.17;;;23.80;44.10;;;;;;4979588;28;113188;-54
2024/04/04 12:10:12;;;;;;;10.57;3.75;;;23.10;44.80;;;;;;4979146;28;113001;-54
2024/04/04 12:12:38;;;;;;;5.60;3.10;;;23.40;43.20;;;;;;4979054;28;113021;-54
2024/04/04 12:15:07;;;;;;;8.23;3.40;;;25.60;39.40;;;;;;4981958;28;112706;-55
2024/04/04 12:17:39;;;;;;;4.10;2.88;;;27.70;34.80;;;;;;4976473;28;114402;-56
2024/04/04 12:20:08;;;;;;;5.67;3.77;;;28.50;34.20;;;;;;4973378;28;113242;-55
2024/04/04 12:22:35;;;;;;;6.18;3.50;;;28.10;35.00;;;;;;4976678;28;112925;-55
2024/04/04 12:25:00;;;;;;;6.35;4.10;;;29.60;33.00;;;;;;4983095;28;112686;-54
2024/04/04 12:27:26;;;;;;;4.90;3.45;;;31.10;30.90;;;;;;4976888;28;113301;-54